Time;durP1;ratioP1;P1;durP2;ratioP2;P2;SDS_P1;SDS_P2;PMS_P1;PMS_P2;Temp;Humidity;BMP_temperature;BMP_pressure;BME280_temperature;BME280_humidity;BME280_pressure;Samples;Min_cycle;Max_cycle;Signal;HPM_P1;HPM_P2
2022/06/30 00:01:27;;;;;;;13.23;7.93;;;24.60;99.90;;;;;;4975863;28;20038;-73
2022/06/30 00:03:53;;;;;;;15.40;8.85;;;24.60;99.90;;;;;;4993428;28;20515;-73
2022/06/30 00:06:18;;;;;;;18.05;8.38;;;24.50;99.90;;;;;;4992965;28;20030;-73
2022/06/30 00:08:44;;;;;;;14.70;9.38;;;24.50;99.90;;;;;;5010426;28;20049;-73
2022/06/30 00:11:10;;;;;;;15.27;7.63;;;24.40;99.90;;;;;;5012820;28;20026;-75
2022/06/30 00:13:38;;;;;;;12.77;8.73;;;24.40;99.90;;;;;;5012926;28;20022;-76
2022/06/30 00:16:04;;;;;;;16.58;8.25;;;24.40;99.90;;;;;;5012629;28;20105;-73
2022/06/30 00:18:31;;;;;;;10.68;7.43;;;24.40;99.90;;;;;;5012828;28;20025;-73
2022/06/30 00:20:57;;;;;;;18.10;7.45;;;24.40;99.90;;;;;;5012996;28;20033;-75
2022/06/30 00:23:23;;;;;;;11.98;7.75;;;24.40;99.90;;;;;;5012625;28;20033;-75
2022/06/30 00:25:49;;;;;;;10.00;7.57;;;24.40;99.90;;;;;;4995386;28;20025;-75
2022/06/30 00:28:18;;;;;;;12.32;6.75;;;24.40;99.90;;;;;;5012549;28;20034;-76
2022/06/30 00:30:44;;;;;;;11.55;8.07;;;24.40;99.90;;;;;;5012810;28;20022;-75
2022/06/30 00:33:10;;;;;;;15.27;8.25;;;24.40;99.90;;;;;;5012675;28;20057;-75
2022/06/30 00:35:36;;;;;;;12.23;7.22;;;24.40;99.90;;;;;;5012843;28;20054;-75
2022/06/30 00:38:02;;;;;;;9.02;7.75;;;24.40;99.90;;;;;;5012622;28;20368;-75
2022/06/30 00:40:28;;;;;;;14.52;7.90;;;24.40;99.90;;;;;;5012783;28;20468;-75
2022/06/30 00:42:54;;;;;;;8.68;7.15;;;24.40;99.90;;;;;;4994818;28;20113;-75
2022/06/30 00:45:20;;;;;;;15.77;7.60;;;24.50;99.90;;;;;;5012612;28;20022;-73
2022/06/30 00:47:46;;;;;;;10.50;7.15;;;24.40;99.90;;;;;;4979852;28;20515;-75
2022/06/30 00:50:11;;;;;;;8.60;7.22;;;24.40;99.90;;;;;;4992975;28;20030;-75
2022/06/30 00:52:37;;;;;;;9.35;6.75;;;24.40;99.90;;;;;;4992826;28;20034;-75
2022/06/30 00:55:07;;;;;;;12.43;6.97;;;24.30;99.90;;;;;;4975524;28;20014;-75
2022/06/30 00:57:37;;;;;;;15.90;7.72;;;24.30;99.90;;;;;;4993060;28;20027;-75
2022/06/30 01:00:04;;;;;;;11.45;7.03;;;24.20;99.90;;;;;;4992925;28;20480;-74
2022/06/30 01:02:30;;;;;;;12.18;7.68;;;24.20;99.90;;;;;;4992846;28;20170;-75
2022/06/30 01:04:57;;;;;;;10.57;7.45;;;24.20;99.90;;;;;;4992816;28;20604;-75
2022/06/30 01:07:24;;;;;;;10.05;7.47;;;24.20;99.90;;;;;;4980749;28;20084;-75
2022/06/30 01:12:42;;;;;;;18.38;7.10;;;24.20;99.90;;;;;;5012450;28;20087;-75
2022/06/30 01:15:19;;;;;;;11.50;7.28;;;24.20;99.90;;;;;;5012479;28;20022;-75
2022/06/30 01:17:46;;;;;;;14.63;7.03;;;24.20;99.90;;;;;;5014469;28;20033;-75
2022/06/30 01:20:13;;;;;;;16.35;7.50;;;24.20;99.90;;;;;;4998617;28;20026;-75
2022/06/30 01:22:39;;;;;;;15.02;7.70;;;24.20;99.90;;;;;;5015924;28;20037;-75
2022/06/30 01:25:06;;;;;;;14.18;7.53;;;24.10;99.90;;;;;;5016045;28;20032;-75
2022/06/30 01:27:32;;;;;;;15.98;7.25;;;24.10;99.90;;;;;;4998125;28;20440;-75
2022/06/30 01:29:58;;;;;;;11.25;7.68;;;24.00;99.90;;;;;;5029858;28;20123;-75
2022/06/30 01:32:28;;;;;;;10.02;7.28;;;24.00;99.90;;;;;;5017776;28;20499;-75
2022/06/30 01:34:53;;;;;;;10.48;7.88;;;24.00;99.90;;;;;;5035521;28;20018;-75
2022/06/30 01:37:19;;;;;;;19.52;7.60;;;24.00;99.90;;;;;;5035384;28;20033;-75
2022/06/30 01:39:45;;;;;;;21.05;8.27;;;23.90;99.90;;;;;;5035397;28;20028;-75
2022/06/30 01:42:11;;;;;;;12.43;7.40;;;23.90;99.90;;;;;;5017500;28;20040;-75
2022/06/30 01:44:37;;;;;;;15.20;8.32;;;23.90;99.90;;;;;;5035411;28;20057;-75
2022/06/30 01:47:03;;;;;;;17.77;7.80;;;23.80;99.90;;;;;;5035359;28;20025;-74
2022/06/30 01:49:29;;;;;;;12.90;8.52;;;23.80;99.90;;;;;;5035277;28;20106;-75
2022/06/30 01:51:54;;;;;;;14.27;8.32;;;23.80;99.90;;;;;;5035042;28;20114;-75
2022/06/30 01:54:20;;;;;;;13.05;7.38;;;23.80;99.90;;;;;;5017487;28;20036;-75
2022/06/30 01:56:46;;;;;;;13.80;8.05;;;23.80;99.90;;;;;;5035074;28;20051;-75
2022/06/30 01:59:12;;;;;;;17.77;8.43;;;23.80;99.90;;;;;;5017113;28;20078;-75
2022/06/30 02:01:38;;;;;;;17.58;7.38;;;23.80;99.90;;;;;;5034881;28;20086;-75
2022/06/30 02:06:47;;;;;;;10.20;7.47;;;23.70;99.90;;;;;;5033460;28;20028;-75
2022/06/30 02:09:13;;;;;;;15.57;8.18;;;23.70;99.90;;;;;;4997295;28;20030;-75
2022/06/30 02:11:39;;;;;;;14.48;7.95;;;23.60;99.90;;;;;;5014986;28;20071;-75
2022/06/30 02:14:05;;;;;;;13.70;8.05;;;23.60;99.90;;;;;;4997391;28;20026;-75
2022/06/30 02:16:31;;;;;;;11.25;8.07;;;23.60;99.90;;;;;;4996917;28;20495;-75
2022/06/30 02:18:57;;;;;;;8.90;6.85;;;23.60;99.90;;;;;;4997299;28;20032;-75
2022/06/30 02:21:23;;;;;;;11.23;7.53;;;23.60;99.90;;;;;;4997266;28;20034;-75
2022/06/30 02:23:51;;;;;;;11.32;7.45;;;23.60;99.90;;;;;;5014842;28;20068;-75
2022/06/30 02:26:17;;;;;;;9.85;7.90;;;23.60;99.90;;;;;;4996844;28;20491;-75
2022/06/30 02:28:43;;;;;;;11.82;7.40;;;23.60;99.90;;;;;;4996266;28;20120;-75
2022/06/30 02:31:12;;;;;;;14.23;7.78;;;23.50;99.90;;;;;;4996865;28;20180;-75
2022/06/30 02:33:41;;;;;;;12.43;7.82;;;23.60;99.90;;;;;;5014998;28;20097;-75
2022/06/30 02:36:07;;;;;;;16.88;7.53;;;23.60;99.90;;;;;;4997116;28;20025;-75
2022/06/30 02:38:34;;;;;;;16.60;7.65;;;23.50;99.90;;;;;;5014561;28;20097;-75
2022/06/30 02:40:59;;;;;;;21.17;8.05;;;23.40;99.90;;;;;;5014494;28;20086;-75
2022/06/30 02:43:25;;;;;;;13.73;7.57;;;23.40;99.90;;;;;;5014833;28;20120;-75
2022/06/30 02:45:51;;;;;;;10.05;7.43;;;23.40;99.90;;;;;;5014837;28;20045;-75
2022/06/30 02:48:18;;;;;;;18.88;7.93;;;23.40;99.90;;;;;;5014567;28;20029;-75
2022/06/30 02:50:45;;;;;;;19.45;8.48;;;23.40;99.90;;;;;;5014189;28;20423;-75
2022/06/30 02:53:11;;;;;;;10.65;7.97;;;23.40;99.90;;;;;;5014337;28;20483;-75
2022/06/30 02:55:37;;;;;;;14.60;7.35;;;23.50;99.90;;;;;;5014331;28;20022;-75
2022/06/30 02:58:03;;;;;;;16.30;8.40;;;23.40;99.90;;;;;;4996499;28;20026;-75
2022/06/30 03:00:29;;;;;;;11.30;8.07;;;23.50;99.90;;;;;;4996523;28;20116;-75
2022/06/30 03:02:58;;;;;;;11.52;7.68;;;23.50;99.90;;;;;;4996376;28;20057;-75
2022/06/30 03:05:24;;;;;;;13.25;7.22;;;23.50;99.90;;;;;;5014224;28;20022;-75
2022/06/30 03:07:50;;;;;;;9.00;6.68;;;23.50;99.90;;;;;;5014184;28;20397;-75
2022/06/30 03:10:16;;;;;;;11.57;6.65;;;23.40;99.90;;;;;;5014277;28;20428;-75
2022/06/30 03:12:42;;;;;;;11.45;7.00;;;23.40;99.90;;;;;;5013440;28;20025;-75
2022/06/30 03:15:08;;;;;;;11.07;6.95;;;23.40;99.90;;;;;;5013349;28;20033;-75
2022/06/30 03:17:34;;;;;;;9.80;6.53;;;23.40;99.90;;;;;;5010169;28;20435;-75
2022/06/30 03:20:00;;;;;;;9.43;7.78;;;23.40;99.90;;;;;;5013159;28;20045;-75
2022/06/30 03:22:26;;;;;;;11.07;6.70;;;23.40;99.90;;;;;;5013149;28;20033;-75
2022/06/30 03:24:52;;;;;;;16.42;6.90;;;23.40;99.90;;;;;;5013174;28;20033;-75
2022/06/30 03:27:18;;;;;;;15.07;8.30;;;23.40;99.90;;;;;;4995555;28;20075;-75
2022/06/30 03:29:44;;;;;;;12.15;7.70;;;23.40;99.90;;;;;;5013030;28;20523;-75
2022/06/30 03:32:10;;;;;;;9.90;7.40;;;23.40;99.90;;;;;;5012886;28;20037;-75
2022/06/30 03:34:36;;;;;;;12.20;6.88;;;23.40;99.90;;;;;;5013166;28;20118;-75
2022/06/30 03:37:02;;;;;;;17.23;7.70;;;23.50;99.90;;;;;;4998495;28;20037;-75
2022/06/30 03:39:27;;;;;;;14.93;6.93;;;23.50;99.90;;;;;;5032921;28;20029;-75
2022/06/30 03:41:53;;;;;;;10.65;7.18;;;23.40;99.90;;;;;;5031644;28;20021;-75
2022/06/30 03:44:19;;;;;;;10.80;6.93;;;23.40;99.90;;;;;;5015132;28;20348;-75
2022/06/30 03:46:45;;;;;;;10.40;6.85;;;23.40;99.90;;;;;;5032998;28;20021;-75
2022/06/30 03:49:11;;;;;;;8.98;6.43;;;23.40;99.90;;;;;;5032805;28;20133;-75
2022/06/30 03:51:37;;;;;;;13.70;6.57;;;23.40;99.90;;;;;;5032621;28;20108;-75
2022/06/30 03:54:03;;;;;;;9.35;7.03;;;23.40;99.90;;;;;;5033159;28;20156;-75
2022/06/30 03:56:29;;;;;;;13.48;6.97;;;23.40;99.90;;;;;;5032927;28;20025;-75
2022/06/30 03:58:54;;;;;;;14.52;7.32;;;23.40;99.90;;;;;;5032900;28;20033;-75
2022/06/30 04:01:20;;;;;;;10.38;6.47;;;23.40;99.90;;;;;;5032616;28;20041;-75
2022/06/30 04:03:46;;;;;;;12.32;6.45;;;23.30;99.90;;;;;;5015032;28;20033;-75
2022/06/30 04:06:12;;;;;;;10.82;6.47;;;23.30;99.90;;;;;;5032713;28;20049;-75
2022/06/30 04:08:37;;;;;;;12.48;7.32;;;23.30;99.90;;;;;;5016508;28;20080;-75
2022/06/30 04:11:03;;;;;;;12.23;7.03;;;23.30;99.90;;;;;;5012697;28;20034;-75
2022/06/30 04:13:29;;;;;;;10.73;7.40;;;23.30;99.90;;;;;;4995285;28;20036;-75
2022/06/30 04:15:58;;;;;;;11.13;6.53;;;23.30;99.90;;;;;;5012886;28;20029;-75
2022/06/30 04:18:23;;;;;;;11.52;6.60;;;23.40;99.90;;;;;;5012911;28;20022;-75
2022/06/30 04:20:49;;;;;;;11.10;7.47;;;23.40;99.90;;;;;;5012404;28;20032;-75
2022/06/30 04:23:15;;;;;;;10.02;6.90;;;23.40;99.90;;;;;;5012779;28;20021;-75
2022/06/30 04:25:41;;;;;;;9.07;6.90;;;23.40;99.90;;;;;;5012680;28;20030;-75
2022/06/30 04:28:07;;;;;;;15.27;7.15;;;23.50;99.90;;;;;;5012754;28;20092;-75
2022/06/30 04:33:17;;;;;;;10.27;7.25;;;23.50;99.90;;;;;;5012986;28;20080;-75
2022/06/30 04:35:43;;;;;;;10.23;6.35;;;23.60;99.90;;;;;;5012874;28;20025;-75
2022/06/30 04:38:09;;;;;;;10.68;6.65;;;23.60;99.90;;;;;;5000436;28;20056;-75
2022/06/30 04:43:19;;;;;;;14.55;6.30;;;23.70;99.90;;;;;;4990058;28;20113;-75
2022/06/30 04:45:45;;;;;;;12.15;7.35;;;23.70;99.90;;;;;;4966062;28;20113;-75
2022/06/30 04:48:11;;;;;;;8.80;6.57;;;23.70;99.90;;;;;;4981145;28;20022;-75
2022/06/30 04:50:38;;;;;;;16.83;7.03;;;23.80;99.90;;;;;;4983633;28;20018;-75
2022/06/30 04:53:04;;;;;;;11.73;7.03;;;23.80;99.90;;;;;;4984799;28;20477;-75
2022/06/30 04:55:29;;;;;;;10.80;7.25;;;23.90;99.90;;;;;;4986447;28;20022;-75
2022/06/30 04:57:55;;;;;;;14.35;7.43;;;23.90;99.90;;;;;;4984451;28;20023;-75
2022/06/30 05:00:21;;;;;;;9.68;6.70;;;23.90;99.90;;;;;;4968895;28;20029;-75
2022/06/30 05:02:47;;;;;;;11.85;7.05;;;23.90;99.90;;;;;;4986120;28;20033;-75
2022/06/30 05:05:12;;;;;;;10.60;7.20;;;24.00;99.90;;;;;;4980069;28;20096;-75
2022/06/30 05:07:38;;;;;;;15.57;6.38;;;24.00;99.90;;;;;;4993038;28;20025;-75
2022/06/30 05:10:04;;;;;;;12.18;7.32;;;24.10;99.90;;;;;;5016218;28;20022;-75
2022/06/30 05:12:30;;;;;;;12.40;7.68;;;24.20;99.90;;;;;;4997801;28;20022;-75
2022/06/30 05:14:55;;;;;;;11.43;7.45;;;24.20;99.90;;;;;;4996075;28;20547;-75
2022/06/30 05:17:21;;;;;;;13.05;6.78;;;24.20;99.90;;;;;;4996338;28;20032;-75
2022/06/30 05:19:47;;;;;;;12.48;6.55;;;24.20;99.90;;;;;;4978802;28;20022;-75
2022/06/30 05:22:13;;;;;;;15.60;7.60;;;24.30;99.90;;;;;;4996072;28;20022;-75
2022/06/30 05:27:23;;;;;;;10.88;6.90;;;24.40;99.90;;;;;;4996301;28;20097;-75
2022/06/30 05:29:48;;;;;;;12.93;6.45;;;24.40;99.90;;;;;;4991101;28;20054;-75
2022/06/30 05:32:15;;;;;;;10.50;6.80;;;24.50;99.90;;;;;;5014257;28;20030;-75
2022/06/30 05:34:40;;;;;;;8.60;5.80;;;24.60;99.90;;;;;;4996759;28;20460;-76
2022/06/30 05:37:06;;;;;;;10.07;6.80;;;24.60;99.90;;;;;;5018099;28;20032;-75
2022/06/30 05:39:32;;;;;;;13.40;6.57;;;24.70;99.90;;;;;;5034066;28;20434;-75
2022/06/30 05:42:00;;;;;;;12.85;6.78;;;24.70;99.90;;;;;;5033799;28;20052;-75
2022/06/30 05:44:27;;;;;;;14.88;7.00;;;24.80;99.90;;;;;;5016364;28;20060;-75
2022/06/30 05:46:53;;;;;;;15.10;7.55;;;24.80;99.90;;;;;;5017136;28;20026;-75
2022/06/30 05:49:19;;;;;;;11.50;7.70;;;24.80;99.90;;;;;;5035114;28;20121;-75
2022/06/30 05:51:45;;;;;;;9.73;6.50;;;24.90;99.90;;;;;;5034846;28;20112;-75
2022/06/30 05:54:11;;;;;;;14.10;6.97;;;25.00;99.90;;;;;;5035330;28;20018;-75
2022/06/30 05:56:36;;;;;;;12.43;6.68;;;25.00;99.90;;;;;;5034815;28;20040;-75
2022/06/30 05:59:02;;;;;;;13.25;6.97;;;25.00;99.90;;;;;;5017342;28;20065;-75
2022/06/30 06:01:28;;;;;;;10.60;6.82;;;25.10;99.90;;;;;;5034826;28;20025;-75
2022/06/30 06:03:54;;;;;;;13.90;7.28;;;25.20;99.90;;;;;;5034016;28;20022;-75
2022/06/30 06:06:19;;;;;;;15.90;7.15;;;25.20;99.90;;;;;;5034852;28;20463;-75
2022/06/30 06:08:45;;;;;;;9.70;7.45;;;25.30;99.90;;;;;;4999926;28;20030;-75
2022/06/30 06:11:11;;;;;;;10.98;7.25;;;25.30;99.90;;;;;;5015012;28;20033;-75
2022/06/30 06:13:36;;;;;;;14.35;7.05;;;25.30;99.90;;;;;;5014822;28;20384;-75
2022/06/30 06:16:02;;;;;;;11.50;6.43;;;25.40;99.90;;;;;;5014876;28;20030;-75
2022/06/30 06:18:28;;;;;;;11.38;7.18;;;25.40;99.90;;;;;;4997364;28;20084;-75
2022/06/30 06:20:54;;;;;;;16.05;7.45;;;25.50;99.90;;;;;;5015065;28;20472;-75
2022/06/30 06:23:19;;;;;;;14.98;7.00;;;25.50;99.90;;;;;;4997173;28;20113;-75
2022/06/30 06:25:45;;;;;;;10.38;6.80;;;25.50;99.90;;;;;;5014984;28;20025;-75
2022/06/30 06:30:55;;;;;;;15.23;8.32;;;25.60;99.90;;;;;;5014311;28;20439;-75
2022/06/30 06:33:21;;;;;;;17.90;8.63;;;25.70;99.90;;;;;;5014565;28;20034;-75
2022/06/30 06:35:46;;;;;;;12.95;7.60;;;25.70;99.90;;;;;;5014155;28;20041;-73
2022/06/30 06:38:12;;;;;;;13.38;7.68;;;25.70;99.90;;;;;;4983571;28;20673;-74
2022/06/30 06:40:38;;;;;;;14.40;6.40;;;25.80;99.90;;;;;;4977270;28;20119;-75
2022/06/30 06:43:04;;;;;;;13.32;6.40;;;25.90;99.90;;;;;;4977485;28;20109;-76
2022/06/30 06:45:29;;;;;;;9.88;6.45;;;25.90;99.90;;;;;;5002532;28;20018;-76
2022/06/30 06:47:55;;;;;;;11.73;5.35;;;26.00;99.90;;;;;;5014291;28;20037;-76
2022/06/30 06:50:21;;;;;;;12.25;6.70;;;26.00;99.90;;;;;;4996524;28;20220;-75
2022/06/30 06:52:47;;;;;;;16.35;6.90;;;26.10;99.90;;;;;;5014252;28;20060;-75
2022/06/30 06:55:12;;;;;;;14.23;6.50;;;26.20;99.90;;;;;;5014225;28;20022;-75
2022/06/30 06:57:39;;;;;;;13.73;6.55;;;26.20;99.90;;;;;;5014146;28;20381;-75
2022/06/30 07:00:07;;;;;;;12.77;7.25;;;26.20;99.90;;;;;;5014332;28;20141;-75
2022/06/30 07:02:33;;;;;;;15.20;7.30;;;26.20;99.90;;;;;;4996207;28;20117;-75
2022/06/30 07:04:59;;;;;;;8.95;6.88;;;26.20;99.90;;;;;;5014175;28;20180;-76
2022/06/30 07:07:25;;;;;;;10.57;7.35;;;26.30;99.90;;;;;;4994850;28;20429;-76
2022/06/30 07:09:51;;;;;;;13.57;7.45;;;26.30;99.90;;;;;;4996329;28;20119;-74
2022/06/30 07:12:17;;;;;;;14.60;7.60;;;26.30;99.90;;;;;;4995891;28;20164;-76
2022/06/30 07:14:43;;;;;;;11.35;6.90;;;26.30;99.90;;;;;;5013666;28;20034;-76
2022/06/30 07:17:09;;;;;;;14.60;7.07;;;26.40;99.90;;;;;;5013792;28;20029;-76
2022/06/30 07:19:34;;;;;;;12.18;6.70;;;26.40;99.90;;;;;;4995760;28;20018;-76
2022/06/30 07:22:00;;;;;;;13.73;7.18;;;26.40;99.90;;;;;;5013714;28;20049;-76
2022/06/30 07:24:26;;;;;;;14.15;7.85;;;26.50;99.90;;;;;;4995961;28;20379;-76
2022/06/30 07:26:52;;;;;;;15.43;7.07;;;26.40;99.90;;;;;;5013030;28;20030;-76
2022/06/30 07:29:18;;;;;;;12.60;8.10;;;26.50;99.90;;;;;;4993176;28;20507;-74
2022/06/30 07:31:44;;;;;;;15.55;8.30;;;26.60;99.90;;;;;;4993742;28;20034;-76
2022/06/30 07:34:10;;;;;;;13.77;7.10;;;26.60;99.90;;;;;;5011315;28;20495;-76
2022/06/30 07:36:36;;;;;;;11.02;7.90;;;26.60;99.90;;;;;;5011203;28;20547;-76
2022/06/30 07:39:03;;;;;;;16.15;9.65;;;26.60;99.90;;;;;;5030813;28;20045;-76
2022/06/30 07:41:29;;;;;;;13.07;8.60;;;26.60;99.90;;;;;;5030902;28;20055;-76
2022/06/30 07:43:55;;;;;;;13.63;8.40;;;26.70;99.90;;;;;;5031535;28;20033;-76
2022/06/30 07:46:20;;;;;;;16.75;8.80;;;26.80;99.90;;;;;;5014250;28;20116;-74
2022/06/30 07:48:47;;;;;;;19.48;8.85;;;26.80;99.90;;;;;;5031984;28;20104;-76
2022/06/30 07:51:15;;;;;;;13.77;8.32;;;26.90;99.90;;;;;;5031610;28;20026;-76
2022/06/30 07:53:41;;;;;;;14.00;8.63;;;26.90;99.90;;;;;;5032057;28;20494;-76
2022/06/30 07:56:06;;;;;;;16.35;9.43;;;27.00;99.90;;;;;;5031928;28;20021;-76
2022/06/30 07:58:33;;;;;;;20.60;9.80;;;27.00;99.90;;;;;;5031770;28;20036;-76
2022/06/30 08:01:00;;;;;;;16.92;9.77;;;27.00;99.90;;;;;;5031633;28;20514;-76
2022/06/30 08:03:26;;;;;;;17.55;9.32;;;27.00;99.90;;;;;;5031837;28;20436;-76
2022/06/30 08:05:52;;;;;;;16.02;8.70;;;27.00;99.90;;;;;;5013821;28;20049;-76
2022/06/30 08:08:17;;;;;;;16.17;9.40;;;27.10;99.90;;;;;;5013800;28;20021;-76
2022/06/30 08:10:43;;;;;;;21.80;9.18;;;27.10;99.90;;;;;;5031663;28;20034;-76
2022/06/30 08:13:09;;;;;;;18.25;8.77;;;27.10;99.90;;;;;;5013776;28;20453;-76
2022/06/30 08:15:36;;;;;;;11.13;7.95;;;27.20;99.90;;;;;;5031606;28;20105;-76
2022/06/30 08:18:06;;;;;;;13.30;9.13;;;27.20;99.90;;;;;;5031626;28;20113;-76
2022/06/30 08:20:32;;;;;;;21.50;10.75;;;27.30;99.90;;;;;;5031551;28;20057;-76
2022/06/30 08:22:58;;;;;;;16.50;8.52;;;27.30;99.90;;;;;;5031355;28;20548;-76
2022/06/30 08:25:25;;;;;;;14.43;8.82;;;27.40;99.90;;;;;;5031448;28;20112;-76
2022/06/30 08:27:51;;;;;;;18.60;8.57;;;27.40;99.90;;;;;;5031049;28;20079;-76
2022/06/30 08:30:17;;;;;;;16.45;9.85;;;27.40;99.90;;;;;;5013500;28;20045;-76
2022/06/30 08:32:43;;;;;;;15.52;8.57;;;27.40;99.90;;;;;;5031281;28;20091;-76
2022/06/30 08:35:09;;;;;;;16.42;8.52;;;27.40;99.90;;;;;;5031407;28;20032;-76
2022/06/30 08:37:35;;;;;;;19.10;9.57;;;27.50;99.90;;;;;;5031269;28;20056;-76
2022/06/30 08:42:46;;;;;;;18.05;9.57;;;27.60;99.90;;;;;;5031402;28;20032;-76
2022/06/30 08:45:13;;;;;;;18.65;9.23;;;27.70;99.90;;;;;;5031211;28;20033;-76
2022/06/30 08:47:40;;;;;;;19.48;8.73;;;27.90;99.90;;;;;;5026363;28;20080;-77
2022/06/30 08:50:10;;;;;;;16.50;9.80;;;28.00;99.90;;;;;;5011537;28;20097;-76
2022/06/30 08:52:47;;;;;;;20.55;10.60;;;28.10;99.90;;;;;;4993618;28;20022;-76
2022/06/30 08:55:15;;;;;;;17.27;9.07;;;28.10;99.90;;;;;;5011628;28;20068;-76
2022/06/30 08:57:45;;;;;;;14.25;8.25;;;28.20;99.90;;;;;;4993807;28;20028;-76
2022/06/30 09:00:13;;;;;;;13.20;8.68;;;28.20;99.90;;;;;;5007941;28;20033;-76
2022/06/30 09:02:39;;;;;;;11.85;9.00;;;28.20;99.90;;;;;;5011425;28;20041;-76
2022/06/30 09:05:06;;;;;;;17.13;9.93;;;28.20;99.90;;;;;;4993963;28;20022;-76
2022/06/30 09:07:32;;;;;;;14.02;8.40;;;28.30;99.90;;;;;;5000803;28;20034;-77
2022/06/30 09:09:58;;;;;;;12.43;7.63;;;28.30;99.90;;;;;;5031130;28;20026;-76
2022/06/30 09:12:26;;;;;;;16.60;9.73;;;28.40;99.90;;;;;;5013152;28;20032;-76
2022/06/30 09:14:52;;;;;;;11.65;8.98;;;28.40;99.90;;;;;;5031085;28;20506;-76
2022/06/30 09:17:30;;;;;;;15.35;8.63;;;28.50;99.90;;;;;;5013192;28;20022;-76
2022/06/30 09:20:00;;;;;;;17.38;8.93;;;28.50;99.90;;;;;;5013220;28;20029;-76
2022/06/30 09:22:37;;;;;;;14.90;7.93;;;28.60;99.90;;;;;;5030854;28;20021;-76
2022/06/30 09:25:06;;;;;;;13.93;8.65;;;28.70;99.90;;;;;;5030889;28;20547;-76
2022/06/30 09:27:34;;;;;;;11.95;7.95;;;28.70;99.90;;;;;;5030993;28;20515;-76
2022/06/30 09:30:04;;;;;;;12.77;8.00;;;28.80;99.90;;;;;;5030913;28;20061;-76
2022/06/30 09:32:42;;;;;;;15.13;9.77;;;28.90;99.90;;;;;;5029741;28;20491;-76
2022/06/30 09:35:10;;;;;;;15.27;9.27;;;28.80;99.90;;;;;;5030881;28;20029;-76
2022/06/30 09:37:37;;;;;;;17.23;8.13;;;28.80;99.90;;;;;;5013227;28;20026;-76
2022/06/30 09:40:04;;;;;;;12.02;7.32;;;28.90;99.90;;;;;;5033338;28;20029;-76
2022/06/30 09:42:41;;;;;;;14.48;8.27;;;29.00;99.90;;;;;;5016410;28;20124;-76
2022/06/30 09:45:09;;;;;;;11.18;7.38;;;29.10;99.90;;;;;;5016541;28;20508;-76
2022/06/30 09:47:36;;;;;;;16.48;8.52;;;29.20;99.90;;;;;;5016448;28;20025;-76
2022/06/30 09:50:05;;;;;;;13.13;7.78;;;29.20;99.10;;;;;;5033980;28;20112;-76
2022/06/30 09:52:32;;;;;;;14.98;7.95;;;29.30;99.70;;;;;;5033968;28;20036;-76
2022/06/30 09:55:00;;;;;;;13.63;7.63;;;29.30;98.50;;;;;;5016481;28;20046;-76
2022/06/30 09:57:28;;;;;;;14.20;6.50;;;29.30;97.90;;;;;;5016345;28;20045;-77
2022/06/30 10:00:06;;;;;;;19.15;8.68;;;29.40;98.70;;;;;;5016105;28;20040;-76
2022/06/30 10:02:39;;;;;;;13.73;8.40;;;29.40;97.90;;;;;;5034043;28;20026;-76
2022/06/30 10:05:07;;;;;;;11.25;7.97;;;29.40;97.80;;;;;;5033923;28;20021;-76
2022/06/30 10:07:37;;;;;;;11.25;7.18;;;29.50;99.10;;;;;;5016167;28;20459;-76
2022/06/30 10:10:13;;;;;;;16.63;9.43;;;29.60;98.80;;;;;;5033924;28;20025;-76
2022/06/30 10:12:40;;;;;;;11.88;8.80;;;29.60;97.80;;;;;;5033761;28;20026;-76
2022/06/30 10:15:07;;;;;;;16.02;7.65;;;29.60;97.80;;;;;;5033757;28;20476;-77
2022/06/30 10:17:44;;;;;;;13.82;7.63;;;29.80;99.10;;;;;;5033583;28;20463;-77
2022/06/30 10:20:10;;;;;;;20.33;9.98;;;30.00;98.90;;;;;;5033629;28;20028;-76
2022/06/30 10:22:39;;;;;;;12.93;8.57;;;30.10;98.10;;;;;;5033418;28;20026;-76
2022/06/30 10:25:05;;;;;;;13.23;7.32;;;30.00;97.60;;;;;;5033473;28;20068;-76
2022/06/30 10:27:32;;;;;;;14.35;8.10;;;30.10;97.70;;;;;;5015615;28;20033;-76
2022/06/30 10:29:59;;;;;;;21.55;8.30;;;30.10;96.90;;;;;;5033257;28;20037;-76
2022/06/30 10:33:02;;;;;;;12.77;8.07;;;30.20;97.40;;;;;;5015376;28;20045;-76
2022/06/30 10:35:38;;;;;;;13.68;7.57;;;30.40;96.50;;;;;;5033434;28;20044;-76
2022/06/30 10:38:33;;;;;;;14.50;7.60;;;30.30;96.60;;;;;;5032927;28;20021;-76
2022/06/30 10:41:13;;;;;;;14.25;7.20;;;30.40;96.10;;;;;;5033205;28;20025;-76
2022/06/30 10:44:03;;;;;;;17.90;7.15;;;30.60;96.60;;;;;;5015183;28;20025;-76
2022/06/30 10:46:56;;;;;;;12.80;7.20;;;30.70;95.10;;;;;;5033129;28;20534;-76
2022/06/30 10:49:24;;;;;;;14.68;6.78;;;30.80;95.00;;;;;;5004443;28;20026;-76
2022/06/30 10:51:54;;;;;;;15.75;7.07;;;30.90;94.90;;;;;;5025971;28;20085;-76
2022/06/30 10:54:34;;;;;;;15.88;6.45;;;31.00;94.50;;;;;;5013213;28;20018;-76
2022/06/30 10:57:01;;;;;;;10.32;5.90;;;31.20;94.30;;;;;;4995527;28;20026;-76
2022/06/30 10:59:30;;;;;;;10.43;5.80;;;31.20;93.20;;;;;;5013227;28;20025;-76
2022/06/30 11:02:09;;;;;;;10.93;6.35;;;31.10;93.10;;;;;;5013195;28;20395;-76
2022/06/30 11:04:35;;;;;;;12.05;5.82;;;31.30;92.70;;;;;;4995456;28;20396;-76
2022/06/30 11:07:07;;;;;;;11.40;6.00;;;31.40;92.70;;;;;;5015947;28;20442;-76
2022/06/30 11:09:48;;;;;;;8.95;5.82;;;31.40;92.60;;;;;;5032665;28;20026;-76
2022/06/30 11:12:15;;;;;;;7.53;5.85;;;31.40;91.20;;;;;;5032575;28;20029;-75
2022/06/30 11:14:50;;;;;;;9.38;5.20;;;31.40;92.00;;;;;;5032418;28;20053;-76
2022/06/30 11:17:20;;;;;;;7.93;4.57;;;31.30;91.00;;;;;;5032682;28;20029;-73
2022/06/30 11:19:49;;;;;;;10.13;5.20;;;31.00;91.00;;;;;;5032545;28;20105;-76
2022/06/30 11:22:16;;;;;;;10.05;6.93;;;31.00;92.00;;;;;;5032297;28;20033;-76
2022/06/30 11:24:45;;;;;;;12.18;6.15;;;30.90;92.80;;;;;;5032273;28;20025;-76
2022/06/30 11:27:17;;;;;;;11.27;5.97;;;30.80;93.20;;;;;;5032226;28;20113;-77
2022/06/30 11:29:45;;;;;;;16.65;6.63;;;30.90;93.40;;;;;;5032030;28;20037;-76
2022/06/30 11:32:12;;;;;;;13.75;6.22;;;31.00;93.40;;;;;;5031953;28;20124;-76
2022/06/30 11:34:40;;;;;;;13.60;6.50;;;31.10;93.60;;;;;;5014641;28;20057;-76
2022/06/30 11:37:10;;;;;;;14.50;6.30;;;31.30;93.10;;;;;;5032308;28;20503;-76
2022/06/30 11:39:36;;;;;;;12.57;5.40;;;31.50;93.40;;;;;;5032216;28;20032;-76
2022/06/30 11:42:11;;;;;;;10.65;5.95;;;31.60;93.20;;;;;;5031897;28;20064;-76
2022/06/30 11:44:41;;;;;;;5.63;5.00;;;32.00;92.30;;;;;;5031880;28;20021;-74
2022/06/30 11:47:18;;;;;;;13.43;6.03;;;32.20;91.90;;;;;;5031778;28;20112;-76
2022/06/30 11:49:45;;;;;;;13.38;6.28;;;32.30;91.20;;;;;;5032079;28;20025;-76
2022/06/30 11:52:24;;;;;;;16.02;6.40;;;32.40;91.40;;;;;;5031884;28;20037;-76
2022/06/30 11:54:54;;;;;;;11.25;5.75;;;32.40;90.70;;;;;;5031856;28;20021;-76
2022/06/30 11:57:23;;;;;;;12.18;5.68;;;32.40;91.10;;;;;;5014053;28;20024;-77
2022/06/30 11:59:52;;;;;;;11.45;6.15;;;32.50;90.30;;;;;;5013952;28;20368;-76
2022/06/30 12:02:18;;;;;;;13.55;5.72;;;32.50;89.80;;;;;;5031119;28;20376;-76
2022/06/30 12:04:49;;;;;;;11.15;5.68;;;32.50;90.20;;;;;;5013992;28;20309;-76
2022/06/30 12:07:16;;;;;;;8.40;5.35;;;32.60;89.50;;;;;;5031654;28;20112;-76
2022/06/30 12:09:44;;;;;;;13.98;6.32;;;32.60;88.50;;;;;;5031415;28;20455;-76
2022/06/30 12:12:10;;;;;;;13.00;6.25;;;32.80;89.20;;;;;;5013947;28;20116;-76
2022/06/30 12:14:39;;;;;;;11.25;5.80;;;32.90;90.20;;;;;;5031551;28;20024;-76
2022/06/30 12:17:07;;;;;;;9.70;4.90;;;33.10;87.40;;;;;;5031516;28;20025;-76
2022/06/30 12:19:33;;;;;;;11.65;4.72;;;33.10;87.60;;;;;;5031485;28;20166;-76
2022/06/30 12:22:01;;;;;;;13.80;5.10;;;33.20;86.80;;;;;;5031443;28;20057;-76
2022/06/30 12:24:27;;;;;;;10.95;4.78;;;33.30;86.80;;;;;;5031711;28;20021;-76
2022/06/30 12:26:58;;;;;;;13.23;4.85;;;33.50;87.00;;;;;;5031412;28;20030;-76
2022/06/30 12:29:25;;;;;;;7.10;4.32;;;33.60;86.20;;;;;;5031258;28;20046;-76
2022/06/30 12:32:07;;;;;;;8.07;4.03;;;33.80;84.70;;;;;;5031364;28;20042;-76
2022/06/30 12:34:48;;;;;;;12.23;4.70;;;33.80;85.70;;;;;;5013681;28;20024;-76
2022/06/30 12:37:14;;;;;;;8.73;4.95;;;34.00;82.70;;;;;;5031240;28;20021;-76
2022/06/30 12:39:45;;;;;;;13.88;4.85;;;34.00;83.30;;;;;;5031421;28;20033;-76
2022/06/30 12:42:11;;;;;;;11.23;4.60;;;34.20;81.20;;;;;;5031182;28;20480;-76
2022/06/30 12:44:38;;;;;;;13.70;5.25;;;34.20;78.80;;;;;;5031396;28;20060;-76
2022/06/30 12:47:10;;;;;;;8.52;4.47;;;34.10;79.80;;;;;;5031346;28;20030;-76
2022/06/30 12:49:38;;;;;;;5.32;3.90;;;34.20;80.20;;;;;;5031427;28;20100;-76
2022/06/30 12:52:20;;;;;;;7.53;4.35;;;34.20;78.80;;;;;;5029803;28;20028;-76
2022/06/30 12:54:54;;;;;;;9.25;4.18;;;34.20;78.10;;;;;;4992942;28;20048;-76
2022/06/30 12:57:20;;;;;;;7.20;4.05;;;34.30;78.50;;;;;;5010861;28;20026;-76
2022/06/30 12:59:48;;;;;;;8.20;4.35;;;34.30;77.50;;;;;;5011263;28;20388;-76